createdAt,value
2024-01-24T00:04:52.526Z,100596.88
2024-01-24T00:09:53.283Z,100578.72
2024-01-24T00:14:54.058Z,100569.22
2024-01-24T00:19:56.058Z,100557.13
2024-01-24T00:24:56.890Z,100540.72
2024-01-24T00:29:57.605Z,100538.16
2024-01-24T00:34:59.691Z,100521.72
2024-01-24T00:40:00.382Z,100513.13
2024-01-24T00:45:01.182Z,100514.88
2024-01-24T00:50:05.800Z,100497.59
2024-01-24T00:55:07.515Z,100486.38
2024-01-24T01:00:09.950Z,100448.41
2024-01-24T01:05:11.997Z,100436.31
2024-01-24T01:10:12.684Z,100434.56
2024-01-24T01:15:13.469Z,100429.34
2024-01-24T01:20:20.045Z,100412.13
2024-01-24T01:25:20.833Z,100409.53
2024-01-24T01:30:24.769Z,100388.00
2024-01-24T01:35:27.260Z,100376.81
2024-01-24T01:40:28.649Z,100345.78
2024-01-24T01:45:29.342Z,100341.47
2024-01-24T01:50:31.523Z,100330.28
2024-01-24T01:55:33.351Z,100325.97
2024-01-24T02:00:35.088Z,100317.34
2024-01-24T02:05:39.260Z,100318.22
2024-01-24T02:10:40.306Z,100293.22
2024-01-24T02:15:41.130Z,100285.47
2024-01-24T02:20:44.137Z,100269.09
2024-01-24T02:25:46.164Z,100272.50
2024-01-24T02:30:46.989Z,100254.41
2024-01-24T02:35:47.706Z,100236.31
2024-01-24T02:40:49.728Z,100217.34
2024-01-24T02:45:50.530Z,100211.22
2024-01-24T02:50:51.764Z,100185.34
2024-01-24T02:55:53.856Z,100181.81
2024-01-24T03:00:54.699Z,100183.47
2024-01-24T03:05:55.410Z,100136.81
2024-01-24T03:10:57.426Z,100148.00
2024-01-24T03:15:58.214Z,100113.91
2024-01-24T03:20:58.910Z,100113.94
2024-01-24T03:26:01.203Z,100112.16
2024-01-24T03:31:02.082Z,100069.78
2024-01-24T03:36:02.765Z,100076.53
2024-01-24T03:41:04.968Z,100050.22
2024-01-24T03:46:06.019Z,100050.66
2024-01-24T03:51:09.584Z,100061.47
2024-01-24T03:56:11.905Z,100040.72
2024-01-24T04:01:12.669Z,100052.84
2024-01-24T04:06:13.467Z,100062.09
2024-01-24T04:11:15.636Z,100047.19
2024-01-24T04:16:16.314Z,100036.34
2024-01-24T04:21:17.058Z,100009.34
2024-01-24T04:26:22.447Z,99990.56
2024-01-24T04:31:23.136Z,100005.00
2024-01-24T04:36:23.863Z,99999.25
2024-01-24T04:41:25.913Z,100005.97
2024-01-24T04:46:26.693Z,99980.59
2024-01-24T04:51:29.490Z,99982.59
2024-01-24T04:56:31.660Z,99959.44
2024-01-24T05:01:32.541Z,99989.66
2024-01-24T05:06:33.470Z,99974.03
2024-01-24T05:11:35.535Z,99960.34
2024-01-24T05:16:36.252Z,99950.41
2024-01-24T05:21:41.454Z,99941.00
2024-01-24T05:26:44.845Z,99933.66
2024-01-24T05:31:45.596Z,99929.19
2024-01-24T05:36:46.336Z,99913.44
2024-01-24T05:41:48.523Z,99912.44
2024-01-24T05:46:49.725Z,99935.22
2024-01-24T05:51:50.513Z,99919.13
2024-01-24T05:56:52.692Z,99925.72
2024-01-24T06:01:53.438Z,99906.34
2024-01-24T06:06:56.207Z,99895.69
2024-01-24T06:11:58.346Z,99902.41
2024-01-24T06:16:59.158Z,99888.88
2024-01-24T06:21:59.982Z,99877.75
2024-01-24T06:27:01.987Z,99908.63
2024-01-24T06:32:02.839Z,99905.53
2024-01-24T06:37:03.579Z,99879.91
2024-01-24T06:42:05.889Z,99867.91
2024-01-24T06:47:06.751Z,99873.25
2024-01-24T06:52:08.475Z,99844.16
2024-01-24T06:57:10.541Z,99877.34
2024-01-24T07:02:11.272Z,99854.06
2024-01-24T07:07:12.063Z,99864.44
2024-01-24T07:12:15.110Z,99860.25
2024-01-24T07:17:16.035Z,99871.72
2024-01-24T07:22:18.003Z,99864.56
2024-01-24T07:27:20.142Z,99859.88
2024-01-24T07:32:20.875Z,99861.75
2024-01-24T07:37:21.579Z,99856.56
2024-01-24T07:42:23.962Z,99845.41
2024-01-24T07:47:24.703Z,99825.69
2024-01-24T07:52:36.341Z,99837.03
2024-01-24T07:57:43.317Z,99846.84
2024-01-24T08:02:44.857Z,99814.59
2024-01-24T08:07:45.746Z,99809.81
2024-01-24T08:12:47.945Z,99843.25
2024-01-24T08:17:48.958Z,99826.28
2024-01-24T08:22:52.598Z,99862.53
2024-01-24T08:27:54.882Z,99880.72
2024-01-24T08:32:55.779Z,99889.84
2024-01-24T08:37:56.710Z,99902.69
2024-01-24T08:42:58.866Z,99905.69
2024-01-24T08:48:00.287Z,99916.63
2024-01-24T08:53:01.316Z,99935.75
2024-01-24T08:58:04.107Z,99923.16
2024-01-24T09:03:05.474Z,99903.56
2024-01-24T09:08:07.111Z,99882.53
2024-01-24T09:13:16.005Z,99875.09
2024-01-24T09:18:19.146Z,99868.34
2024-01-24T09:23:20.927Z,99892.28
2024-01-24T09:28:24.225Z,99880.97
2024-01-24T09:33:25.892Z,99907.41
2024-01-24T09:38:26.754Z,99895.00
2024-01-24T09:43:40.972Z,99924.47
2024-01-24T09:48:43.681Z,99899.66
2024-01-24T09:53:47.955Z,99878.72
2024-01-24T09:58:50.181Z,99888.75
2024-01-24T10:03:53.178Z,99909.69
2024-01-24T10:08:53.884Z,99897.00
2024-01-24T10:13:59.040Z,99917.56
2024-01-24T10:18:59.902Z,99923.44
2024-01-24T10:24:01.160Z,99928.34
2024-01-24T10:29:03.995Z,99946.16
2024-01-24T10:34:05.794Z,99939.75
2024-01-24T10:39:11.653Z,99926.63
2024-01-24T10:44:21.126Z,99995.38
2024-01-24T10:49:24.055Z,100070.56
2024-01-24T10:54:25.892Z,100095.28
2024-01-24T10:59:30.866Z,100023.88
2024-01-24T11:04:32.056Z,100049.97
2024-01-24T11:09:39.358Z,100064.69
2024-01-24T11:14:47.274Z,100028.41
2024-01-24T11:19:48.374Z,100017.78
2024-01-24T11:24:51.339Z,100047.19
2024-01-24T11:29:54.596Z,100087.56
2024-01-24T11:35:27.041Z,100060.34
2024-01-24T11:40:28.091Z,100044.38
2024-01-24T11:45:31.785Z,100079.00
2024-01-24T11:50:32.549Z,100056.41
2024-01-24T11:55:33.310Z,100044.00
2024-01-24T12:00:35.755Z,100048.88
2024-01-24T12:05:36.783Z,100048.13
2024-01-24T12:10:40.073Z,100081.22
2024-01-24T12:15:44.065Z,100091.06
2024-01-24T12:20:47.785Z,100089.59
2024-01-24T12:25:49.185Z,100091.41
2024-01-24T12:30:55.593Z,100079.34
2024-01-24T12:35:57.082Z,100110.53
2024-01-24T12:40:58.085Z,100109.28
2024-01-24T12:46:06.620Z,100103.09
2024-01-24T12:51:07.911Z,100101.06
2024-01-24T12:56:11.107Z,100138.94
2024-01-24T13:01:13.706Z,100114.88
2024-01-24T13:06:16.414Z,100105.94
2024-01-24T13:11:17.591Z,100128.47
2024-01-24T13:16:20.006Z,100129.97
2024-01-24T13:21:20.819Z,100123.34
2024-01-24T13:26:21.569Z,100141.91
2024-01-24T13:31:23.837Z,100174.97
2024-01-24T13:36:24.632Z,100171.53
2024-01-24T13:41:25.742Z,100147.66
2024-01-24T13:46:27.873Z,100152.50
2024-01-24T13:51:38.734Z,100176.69
2024-01-24T13:56:48.773Z,100190.94
2024-01-24T14:01:56.739Z,100190.94
2024-01-24T14:07:19.359Z,100196.03
2024-01-24T14:12:20.397Z,100211.69
2024-01-24T14:17:23.736Z,100252.25
2024-01-24T14:22:24.596Z,100237.91
2024-01-24T14:27:27.467Z,100232.00
2024-01-24T14:32:29.778Z,100249.25
2024-01-24T14:37:31.946Z,100250.66
2024-01-24T14:42:33.586Z,100252.72
2024-01-24T14:47:35.788Z,100241.69
2024-01-24T14:52:37.116Z,100273.59
2024-01-24T14:57:38.007Z,100265.63
2024-01-24T15:02:40.692Z,100251.75
2024-01-24T15:07:42.121Z,100270.25
2024-01-24T15:12:43.031Z,100274.69
2024-01-24T15:17:45.224Z,100310.00
2024-01-24T15:22:46.143Z,100301.00
2024-01-24T15:27:47.497Z,100339.72
2024-01-24T15:32:50.296Z,100287.19
2024-01-24T15:37:54.152Z,100297.66
2024-01-24T15:43:00.862Z,100315.59
2024-01-24T15:48:03.202Z,100312.69
2024-01-24T15:53:04.104Z,100308.69
2024-01-24T15:58:05.431Z,100329.28
2024-01-24T16:03:12.028Z,100313.56
2024-01-24T16:08:13.442Z,100330.00
2024-01-24T16:13:14.462Z,100340.38
2024-01-24T16:18:16.620Z,100338.41
2024-01-24T16:23:17.426Z,100377.09
2024-01-24T16:28:18.317Z,100362.22
2024-01-24T16:33:20.498Z,100367.31
2024-01-24T16:38:21.896Z,100365.56
2024-01-24T16:43:31.941Z,100372.41
2024-01-24T16:48:34.751Z,100392.38
2024-01-24T16:53:38.063Z,100392.38
2024-01-24T16:58:40.884Z,100395.00
2024-01-24T17:03:43.423Z,100388.09
2024-01-24T17:08:44.395Z,100408.13
2024-01-24T17:13:45.103Z,100390.72
2024-01-24T17:18:47.288Z,100413.28
2024-01-24T17:23:48.116Z,100412.47
2024-01-24T17:28:49.071Z,100419.41
2024-01-24T17:33:51.481Z,100427.25
2024-01-24T17:38:52.464Z,100429.06
2024-01-24T17:43:53.222Z,100447.41
2024-01-24T17:48:55.524Z,100450.91
2024-01-24T17:53:56.358Z,100451.81
2024-01-24T17:58:57.284Z,100470.06
2024-01-24T18:03:59.580Z,100485.75
2024-01-24T18:09:00.802Z,100492.75
2024-01-24T18:14:01.990Z,100480.75
2024-01-24T18:19:04.207Z,100487.84
2024-01-24T18:24:05.974Z,100511.25
2024-01-24T18:29:06.929Z,100520.41
2024-01-24T18:34:09.492Z,100530.81
2024-01-24T18:39:10.369Z,100517.84
2024-01-24T18:44:11.083Z,100545.44
2024-01-24T18:49:13.625Z,100534.91
2024-01-24T18:54:15.146Z,100539.19
2024-01-24T18:59:16.107Z,100547.94
2024-01-24T19:04:19.026Z,100567.06
2024-01-24T19:09:20.004Z,100546.44
2024-01-24T19:14:20.946Z,100559.44
2024-01-24T19:19:25.450Z,100576.72
2024-01-24T19:24:26.395Z,100569.75
2024-01-24T19:29:27.231Z,100574.06
2024-01-24T19:34:29.509Z,100580.13
2024-01-24T19:39:30.813Z,100542.06
2024-01-24T19:44:31.566Z,100569.88
2024-01-24T19:49:34.287Z,100565.59
2024-01-24T19:54:36.978Z,100567.28
2024-01-24T19:59:37.863Z,100563.88
2024-01-24T20:04:40.359Z,100567.34
2024-01-24T20:09:42.210Z,100567.41
2024-01-24T20:14:42.972Z,100578.66
2024-01-24T20:19:46.244Z,100598.69
2024-01-24T20:24:47.642Z,100607.44
2024-01-24T20:29:49.563Z,100593.75
2024-01-24T20:34:51.860Z,100621.53
2024-01-24T20:39:53.557Z,100613.69
2024-01-24T20:44:54.890Z,100652.78
2024-01-24T20:49:57.171Z,100632.09
2024-01-24T20:54:58.088Z,100621.72
2024-01-24T20:59:58.902Z,100643.41
2024-01-24T21:05:01.368Z,100662.31
2024-01-24T21:10:02.262Z,100659.75
2024-01-24T21:15:03.293Z,100672.75
2024-01-24T21:20:06.627Z,100643.41
2024-01-24T21:25:09.266Z,100646.03
2024-01-24T21:30:11.445Z,100636.50
2024-01-24T21:35:13.508Z,100624.31
2024-01-24T21:40:14.876Z,100637.25
2024-01-24T21:45:16.027Z,100619.91
2024-01-24T21:50:18.091Z,100615.53
2024-01-24T21:55:18.976Z,100596.47
2024-01-24T22:00:20.287Z,100600.72
2024-01-24T22:05:22.928Z,100598.97
2024-01-24T22:10:23.793Z,100599.84
2024-01-24T22:15:24.574Z,100627.53
2024-01-24T22:20:26.781Z,100621.47
2024-01-24T22:25:28.231Z,100650.84
2024-01-24T22:30:29.168Z,100616.22
2024-01-24T22:35:31.313Z,100647.38
2024-01-24T22:40:33.570Z,100618.75
2024-01-24T22:45:34.384Z,100633.50
2024-01-24T22:50:36.601Z,100630.03
2024-01-24T22:55:37.431Z,100639.53
2024-01-24T23:00:38.676Z,100659.47
2024-01-24T23:05:40.889Z,100663.81
2024-01-24T23:10:41.630Z,100660.47
2024-01-24T23:15:43.353Z,100683.81
2024-01-24T23:20:45.951Z,100669.16
2024-01-24T23:25:49.860Z,100656.13
2024-01-24T23:30:52.137Z,100667.34
2024-01-24T23:35:54.326Z,100660.44
2024-01-24T23:40:54.985Z,100668.22
2024-01-24T23:45:55.704Z,100665.66
2024-01-24T23:50:58.035Z,100679.50
2024-01-24T23:55:58.910Z,100665.66
